sensor_id;sensor_type;location;lat;lon;timestamp;pressure;altitude;pressure_sealevel;temperature
67509;BMP280;54354;44.724;11.284;2024-02-04T00:00:29;102367.06;;;13.30
67509;BMP280;54354;44.724;11.284;2024-02-04T00:02:54;102373.13;;;13.31
67509;BMP280;54354;44.724;11.284;2024-02-04T00:05:20;102357.19;;;13.34
67509;BMP280;54354;44.724;11.284;2024-02-04T00:07:46;102355.63;;;13.37
67509;BMP280;54354;44.724;11.284;2024-02-04T00:10:11;102352.97;;;13.40
67509;BMP280;54354;44.724;11.284;2024-02-04T00:12:37;102344.63;;;13.42
67509;BMP280;54354;44.724;11.284;2024-02-04T00:15:04;102352.63;;;13.42
67509;BMP280;54354;44.724;11.284;2024-02-04T00:17:30;102343.47;;;13.43
67509;BMP280;54354;44.724;11.284;2024-02-04T00:19:59;102346.53;;;13.41
67509;BMP280;54354;44.724;11.284;2024-02-04T00:22:24;102343.88;;;13.41
67509;BMP280;54354;44.724;11.284;2024-02-04T00:24:50;102346.91;;;13.40
67509;BMP280;54354;44.724;11.284;2024-02-04T00:27:16;102344.22;;;13.36
67509;BMP280;54354;44.724;11.284;2024-02-04T00:29:41;102341.97;;;13.35
67509;BMP280;54354;44.724;11.284;2024-02-04T00:32:07;102348.78;;;13.36
67509;BMP280;54354;44.724;11.284;2024-02-04T00:34:32;102351.09;;;13.34
67509;BMP280;54354;44.724;11.284;2024-02-04T00:36:58;102354.91;;;13.33
67509;BMP280;54354;44.724;11.284;2024-02-04T00:39:24;102355.28;;;13.24
67509;BMP280;54354;44.724;11.284;2024-02-04T00:41:49;102362.91;;;13.22
67509;BMP280;54354;44.724;11.284;2024-02-04T00:44:15;102360.25;;;13.15
67509;BMP280;54354;44.724;11.284;2024-02-04T00:46:41;102364.44;;;13.09
67509;BMP280;54354;44.724;11.284;2024-02-04T00:49:06;102360.63;;;13.06
67509;BMP280;54354;44.724;11.284;2024-02-04T00:51:32;102358.72;;;13.07
67509;BMP280;54354;44.724;11.284;2024-02-04T00:53:58;102359.13;;;13.09
67509;BMP280;54354;44.724;11.284;2024-02-04T00:56:23;102357.19;;;13.13
67509;BMP280;54354;44.724;11.284;2024-02-04T00:58:49;102354.50;;;13.16
67509;BMP280;54354;44.724;11.284;2024-02-04T01:01:15;102357.94;;;13.13
67509;BMP280;54354;44.724;11.284;2024-02-04T01:03:40;102351.13;;;13.12
67509;BMP280;54354;44.724;11.284;2024-02-04T01:06:06;102351.13;;;13.16
67509;BMP280;54354;44.724;11.284;2024-02-04T01:08:31;102337.06;;;13.15
67509;BMP280;54354;44.724;11.284;2024-02-04T01:10:57;102337.81;;;13.16
67509;BMP280;54354;44.724;11.284;2024-02-04T01:13:22;102343.53;;;13.14
67509;BMP280;54354;44.724;11.284;2024-02-04T01:15:48;102343.13;;;13.12
67509;BMP280;54354;44.724;11.284;2024-02-04T01:18:14;102340.84;;;13.11
67509;BMP280;54354;44.724;11.284;2024-02-04T01:20:39;102338.19;;;13.11
67509;BMP280;54354;44.724;11.284;2024-02-04T01:23:05;102349.22;;;13.13
67509;BMP280;54354;44.724;11.284;2024-02-04T01:25:30;102352.25;;;13.11
67509;BMP280;54354;44.724;11.284;2024-02-04T01:27:56;102352.25;;;13.11
67509;BMP280;54354;44.724;11.284;2024-02-04T01:30:21;102367.44;;;13.11
67509;BMP280;54354;44.724;11.284;2024-02-04T01:32:47;102377.72;;;13.12
67509;BMP280;54354;44.724;11.284;2024-02-04T01:35:12;102378.84;;;13.11
67509;BMP280;54354;44.724;11.284;2024-02-04T01:37:40;102383.78;;;13.09
67509;BMP280;54354;44.724;11.284;2024-02-04T01:40:06;102381.91;;;13.06
67509;BMP280;54354;44.724;11.284;2024-02-04T01:42:32;102373.16;;;13.06
67509;BMP280;54354;44.724;11.284;2024-02-04T01:44:57;102364.78;;;13.07
67509;BMP280;54354;44.724;11.284;2024-02-04T01:47:23;102357.56;;;13.04
67509;BMP280;54354;44.724;11.284;2024-02-04T01:49:49;102345.03;;;13.01
67509;BMP280;54354;44.724;11.284;2024-02-04T01:52:15;102334.41;;;12.94
67509;BMP280;54354;44.724;11.284;2024-02-04T01:54:41;102326.03;;;12.81
67509;BMP280;54354;44.724;11.284;2024-02-04T01:57:09;102325.66;;;12.68
67509;BMP280;54354;44.724;11.284;2024-02-04T01:59:35;102336.28;;;12.65
67509;BMP280;54354;44.724;11.284;2024-02-04T02:02:01;102350.69;;;12.60
67509;BMP280;54354;44.724;11.284;2024-02-04T02:04:26;102362.88;;;12.61
67509;BMP280;54354;44.724;11.284;2024-02-04T02:06:53;102348.41;;;12.59
67509;BMP280;54354;44.724;11.284;2024-02-04T02:09:19;102359.03;;;12.62
67509;BMP280;54354;44.724;11.284;2024-02-04T02:11:47;102347.25;;;12.56
67509;BMP280;54354;44.724;11.284;2024-02-04T02:14:18;102362.06;;;12.54
67509;BMP280;54354;44.724;11.284;2024-02-04T02:16:45;102366.63;;;12.60
67509;BMP280;54354;44.724;11.284;2024-02-04T02:22:04;102348.41;;;12.52
67509;BMP280;54354;44.724;11.284;2024-02-04T02:24:42;102349.53;;;12.51
67509;BMP280;54354;44.724;11.284;2024-02-04T02:27:07;102359.03;;;12.52
67509;BMP280;54354;44.724;11.284;2024-02-04T02:29:33;102363.19;;;12.45
67509;BMP280;54354;44.724;11.284;2024-02-04T02:32:00;102344.22;;;12.40
67509;BMP280;54354;44.724;11.284;2024-02-04T02:34:26;102355.59;;;12.37
67509;BMP280;54354;44.724;11.284;2024-02-04T02:37:32;102340.00;;;12.28
67509;BMP280;54354;44.724;11.284;2024-02-04T02:42:27;102326.28;;;12.12
67509;BMP280;54354;44.724;11.284;2024-02-04T02:44:54;102327.00;;;12.02
67509;BMP280;54354;44.724;11.284;2024-02-04T02:47:22;102348.97;;;11.99
67509;BMP280;54354;44.724;11.284;2024-02-04T02:49:51;102350.06;;;11.87
67509;BMP280;54354;44.724;11.284;2024-02-04T02:52:17;102372.81;;;11.91
67509;BMP280;54354;44.724;11.284;2024-02-04T02:54:42;102363.00;;;11.92
67509;BMP280;54354;44.724;11.284;2024-02-04T02:57:08;102349.00;;;12.02
67509;BMP280;54354;44.724;11.284;2024-02-04T02:59:33;102344.44;;;12.06
67509;BMP280;54354;44.724;11.284;2024-02-04T03:01:59;102352.81;;;12.05
67509;BMP280;54354;44.724;11.284;2024-02-04T03:04:25;102355.84;;;12.07
67509;BMP280;54354;44.724;11.284;2024-02-04T03:06:51;102336.47;;;12.06
67509;BMP280;54354;44.724;11.284;2024-02-04T03:09:16;102324.34;;;12.02
67509;BMP280;54354;44.724;11.284;2024-02-04T03:11:42;102326.19;;;11.94
67509;BMP280;54354;44.724;11.284;2024-02-04T03:14:08;102318.22;;;11.87
67509;BMP280;54354;44.724;11.284;2024-02-04T03:16:33;102325.38;;;11.79
67509;BMP280;54354;44.724;11.284;2024-02-04T03:18:59;102323.81;;;11.71
67509;BMP280;54354;44.724;11.284;2024-02-04T03:21:24;102322.25;;;11.63
67509;BMP280;54354;44.724;11.284;2024-02-04T03:23:50;102338.19;;;11.59
67509;BMP280;54354;44.724;11.284;2024-02-04T03:26:18;102330.91;;;11.53
67509;BMP280;54354;44.724;11.284;2024-02-04T03:28:48;102333.19;;;11.54
67509;BMP280;54354;44.724;11.284;2024-02-04T03:31:22;102326.75;;;11.52
67509;BMP280;54354;44.724;11.284;2024-02-04T03:33:48;102332.47;;;11.61
67509;BMP280;54354;44.724;11.284;2024-02-04T03:36:18;102329.78;;;11.54
67509;BMP280;54354;44.724;11.284;2024-02-04T03:38:45;102336.25;;;11.56
67509;BMP280;54354;44.724;11.284;2024-02-04T03:41:11;102328.22;;;11.49
67509;BMP280;54354;44.724;11.284;2024-02-04T03:43:37;102335.81;;;11.47
67509;BMP280;54354;44.724;11.284;2024-02-04T03:46:02;102322.16;;;11.45
67509;BMP280;54354;44.724;11.284;2024-02-04T03:48:28;102326.00;;;11.55
67509;BMP280;54354;44.724;11.284;2024-02-04T03:50:54;102337.34;;;11.52
67509;BMP280;54354;44.724;11.284;2024-02-04T03:53:19;102334.69;;;11.48
67509;BMP280;54354;44.724;11.284;2024-02-04T03:55:48;102332.34;;;11.39
67509;BMP280;54354;44.724;11.284;2024-02-04T03:58:14;102333.78;;;11.26
67509;BMP280;54354;44.724;11.284;2024-02-04T04:00:39;102331.78;;;11.16
67509;BMP280;54354;44.724;11.284;2024-02-04T04:03:05;102312.84;;;11.14
67509;BMP280;54354;44.724;11.284;2024-02-04T04:05:30;102292.78;;;11.20
67509;BMP280;54354;44.724;11.284;2024-02-04T04:07:56;102288.31;;;11.28
67509;BMP280;54354;44.724;11.284;2024-02-04T04:10:21;102289.06;;;11.32
67509;BMP280;54354;44.724;11.284;2024-02-04T04:12:47;102276.97;;;11.34
67509;BMP280;54354;44.724;11.284;2024-02-04T04:15:13;102264.84;;;11.30
67509;BMP280;54354;44.724;11.284;2024-02-04T04:17:38;102281.53;;;11.30
67509;BMP280;54354;44.724;11.284;2024-02-04T04:20:06;102278.47;;;11.28
67509;BMP280;54354;44.724;11.284;2024-02-04T04:22:32;102282.25;;;11.27
67509;BMP280;54354;44.724;11.284;2024-02-04T04:24:57;102251.91;;;11.25
67509;BMP280;54354;44.724;11.284;2024-02-04T04:27:23;102245.84;;;11.21
67509;BMP280;54354;44.724;11.284;2024-02-04T04:29:49;102240.84;;;11.08
67509;BMP280;54354;44.724;11.284;2024-02-04T04:32:14;102250.25;;;11.02
67509;BMP280;54354;44.724;11.284;2024-02-04T04:34:39;102242.63;;;10.94
67509;BMP280;54354;44.724;11.284;2024-02-04T04:37:05;102235.38;;;10.87
67509;BMP280;54354;44.724;11.284;2024-02-04T04:39:30;102242.50;;;10.83
67509;BMP280;54354;44.724;11.284;2024-02-04T04:41:56;102259.94;;;10.84
67509;BMP280;54354;44.724;11.284;2024-02-04T04:44:21;102266.38;;;10.79
67509;BMP280;54354;44.724;11.284;2024-02-04T04:46:47;102252.75;;;10.81
67509;BMP280;54354;44.724;11.284;2024-02-04T04:49:13;102268.66;;;10.84
67509;BMP280;54354;44.724;11.284;2024-02-04T04:51:39;102271.72;;;10.86
67509;BMP280;54354;44.724;11.284;2024-02-04T04:54:04;102265.66;;;10.86
67509;BMP280;54354;44.724;11.284;2024-02-04T04:56:30;102274.75;;;10.88
67509;BMP280;54354;44.724;11.284;2024-02-04T04:58:55;102293.66;;;10.87
67509;BMP280;54354;44.724;11.284;2024-02-04T05:01:21;102286.72;;;10.75
67509;BMP280;54354;44.724;11.284;2024-02-04T05:03:46;102279.47;;;10.65
67509;BMP280;54354;44.724;11.284;2024-02-04T05:06:13;102279.03;;;10.59
67509;BMP280;54354;44.724;11.284;2024-02-04T05:08:38;102282.06;;;10.58
67509;BMP280;54354;44.724;11.284;2024-02-04T05:11:04;102294.91;;;10.56
67509;BMP280;54354;44.724;11.284;2024-02-04T05:13:29;102313.78;;;10.54
67509;BMP280;54354;44.724;11.284;2024-02-04T05:15:55;102312.97;;;10.47
67509;BMP280;54354;44.724;11.284;2024-02-04T05:18:21;102283.41;;;10.45
67509;BMP280;54354;44.724;11.284;2024-02-04T05:20:46;102283.13;;;10.50
67509;BMP280;54354;44.724;11.284;2024-02-04T05:23:13;102282.00;;;10.54
67509;BMP280;54354;44.724;11.284;2024-02-04T05:25:39;102294.16;;;10.59
67509;BMP280;54354;44.724;11.284;2024-02-04T05:28:06;102274.47;;;10.56
67509;BMP280;54354;44.724;11.284;2024-02-04T05:30:31;102285.50;;;10.62
67509;BMP280;54354;44.724;11.284;2024-02-04T05:32:57;102297.22;;;10.61
67509;BMP280;54354;44.724;11.284;2024-02-04T05:35:22;102308.16;;;10.56
67509;BMP280;54354;44.724;11.284;2024-02-04T05:37:48;102317.50;;;10.46
67509;BMP280;54354;44.724;11.284;2024-02-04T05:40:13;102319.31;;;10.38
67509;BMP280;54354;44.724;11.284;2024-02-04T05:42:40;102319.59;;;10.30
67509;BMP280;54354;44.724;11.284;2024-02-04T05:45:06;102323.25;;;10.22
67509;BMP280;54354;44.724;11.284;2024-02-04T05:47:32;102327.31;;;10.12
67509;BMP280;54354;44.724;11.284;2024-02-04T05:49:57;102338.09;;;9.96
67509;BMP280;54354;44.724;11.284;2024-02-04T05:52:23;102340.44;;;9.75
67509;BMP280;54354;44.724;11.284;2024-02-04T05:54:48;102323.00;;;9.47
67509;BMP280;54354;44.724;11.284;2024-02-04T05:57:14;102326.34;;;9.44
67509;BMP280;54354;44.724;11.284;2024-02-04T05:59:39;102347.88;;;9.43
67509;BMP280;54354;44.724;11.284;2024-02-04T06:02:05;102360.66;;;9.41
67509;BMP280;54354;44.724;11.284;2024-02-04T06:04:30;102362.56;;;9.40
67509;BMP280;54354;44.724;11.284;2024-02-04T06:06:57;102371.59;;;9.39
67509;BMP280;54354;44.724;11.284;2024-02-04T06:09:23;102361.53;;;9.45
67509;BMP280;54354;44.724;11.284;2024-02-04T06:11:48;102376.75;;;9.55
67509;BMP280;54354;44.724;11.284;2024-02-04T06:14:14;102394.00;;;9.68
67509;BMP280;54354;44.724;11.284;2024-02-04T06:16:39;102388.88;;;9.79
67509;BMP280;54354;44.724;11.284;2024-02-04T06:19:05;102398.44;;;9.87
67509;BMP280;54354;44.724;11.284;2024-02-04T06:21:32;102403.06;;;9.94
67509;BMP280;54354;44.724;11.284;2024-02-04T06:23:57;102412.59;;;9.98
67509;BMP280;54354;44.724;11.284;2024-02-04T06:26:23;102422.41;;;9.98
67509;BMP280;54354;44.724;11.284;2024-02-04T06:28:49;102434.47;;;9.95
67509;BMP280;54354;44.724;11.284;2024-02-04T06:31:16;102442.34;;;9.92
67509;BMP280;54354;44.724;11.284;2024-02-04T06:33:43;102434.72;;;9.86
67509;BMP280;54354;44.724;11.284;2024-02-04T06:36:09;102440.72;;;9.83
67509;BMP280;54354;44.724;11.284;2024-02-04T06:38:36;102446.00;;;9.83
67509;BMP280;54354;44.724;11.284;2024-02-04T06:41:01;102461.19;;;9.86
67509;BMP280;54354;44.724;11.284;2024-02-04T06:43:27;102466.06;;;9.84
67509;BMP280;54354;44.724;11.284;2024-02-04T06:45:52;102460.31;;;9.79
67509;BMP280;54354;44.724;11.284;2024-02-04T06:48:21;102465.09;;;9.73
67509;BMP280;54354;44.724;11.284;2024-02-04T06:50:46;102482.81;;;9.69
67509;BMP280;54354;44.724;11.284;2024-02-04T06:53:15;102479.66;;;9.60
67509;BMP280;54354;44.724;11.284;2024-02-04T06:55:41;102497.06;;;9.64
67509;BMP280;54354;44.724;11.284;2024-02-04T06:58:06;102501.66;;;9.68
67509;BMP280;54354;44.724;11.284;2024-02-04T07:00:32;102512.94;;;9.64
67509;BMP280;54354;44.724;11.284;2024-02-04T07:02:57;102528.13;;;9.68
67509;BMP280;54354;44.724;11.284;2024-02-04T07:05:23;102525.91;;;9.70
67509;BMP280;54354;44.724;11.284;2024-02-04T07:07:49;102522.16;;;9.71
67509;BMP280;54354;44.724;11.284;2024-02-04T07:10:15;102518.78;;;9.74
67509;BMP280;54354;44.724;11.284;2024-02-04T07:12:41;102505.22;;;9.75
67509;BMP280;54354;44.724;11.284;2024-02-04T07:15:07;102496.16;;;9.76
67509;BMP280;54354;44.724;11.284;2024-02-04T07:17:34;102502.88;;;9.70
67509;BMP280;54354;44.724;11.284;2024-02-04T07:20:00;102507.09;;;9.75
67509;BMP280;54354;44.724;11.284;2024-02-04T07:22:26;102510.47;;;9.72
67509;BMP280;54354;44.724;11.284;2024-02-04T07:24:51;102518.75;;;9.70
67509;BMP280;54354;44.724;11.284;2024-02-04T07:27:17;102512.72;;;9.73
67509;BMP280;54354;44.724;11.284;2024-02-04T07:29:42;102524.94;;;9.78
67509;BMP280;54354;44.724;11.284;2024-02-04T07:32:08;102529.03;;;9.75
67509;BMP280;54354;44.724;11.284;2024-02-04T07:34:34;102535.09;;;9.76
67509;BMP280;54354;44.724;11.284;2024-02-04T07:37:00;102522.22;;;9.74
67509;BMP280;54354;44.724;11.284;2024-02-04T07:39:26;102515.34;;;9.70
67509;BMP280;54354;44.724;11.284;2024-02-04T07:41:51;102522.16;;;9.71
67509;BMP280;54354;44.724;11.284;2024-02-04T07:44:19;102533.19;;;9.76
67509;BMP280;54354;44.724;11.284;2024-02-04T07:46:44;102537.94;;;9.86
67509;BMP280;54354;44.724;11.284;2024-02-04T07:49:10;102535.81;;;9.96
67509;BMP280;54354;44.724;11.284;2024-02-04T07:51:35;102538.13;;;10.01
67509;BMP280;54354;44.724;11.284;2024-02-04T07:54:03;102540.03;;;10.00
67509;BMP280;54354;44.724;11.284;2024-02-04T07:56:29;102536.28;;;10.01
67509;BMP280;54354;44.724;11.284;2024-02-04T07:58:54;102533.25;;;10.03
67509;BMP280;54354;44.724;11.284;2024-02-04T08:01:20;102539.69;;;10.02
67509;BMP280;54354;44.724;11.284;2024-02-04T08:03:45;102534.16;;;10.10
67509;BMP280;54354;44.724;11.284;2024-02-04T08:06:12;102525.56;;;10.17
67509;BMP280;54354;44.724;11.284;2024-02-04T08:08:37;102538.59;;;10.29
67509;BMP280;54354;44.724;11.284;2024-02-04T08:11:04;102528.91;;;10.37
67509;BMP280;54354;44.724;11.284;2024-02-04T08:13:29;102532.38;;;10.45
67509;BMP280;54354;44.724;11.284;2024-02-04T08:15:55;102528.72;;;10.53
67509;BMP280;54354;44.724;11.284;2024-02-04T08:18:20;102524.66;;;10.59
67509;BMP280;54354;44.724;11.284;2024-02-04T08:20:46;102530.44;;;10.68
67509;BMP280;54354;44.724;11.284;2024-02-04T08:23:11;102521.88;;;10.78
67509;BMP280;54354;44.724;11.284;2024-02-04T08:25:37;102514.50;;;10.91
67509;BMP280;54354;44.724;11.284;2024-02-04T08:28:03;102493.34;;;10.98
67509;BMP280;54354;44.724;11.284;2024-02-04T08:30:28;102501.81;;;11.11
67509;BMP280;54354;44.724;11.284;2024-02-04T08:32:54;102481.06;;;11.20
67509;BMP280;54354;44.724;11.284;2024-02-04T08:35:19;102492.19;;;11.33
67509;BMP280;54354;44.724;11.284;2024-02-04T08:37:45;102496.50;;;11.45
67509;BMP280;54354;44.724;11.284;2024-02-04T08:40:10;102510.66;;;11.59
67509;BMP280;54354;44.724;11.284;2024-02-04T08:42:36;102514.91;;;11.71
67509;BMP280;54354;44.724;11.284;2024-02-04T08:45:02;102496.06;;;11.87
67509;BMP280;54354;44.724;11.284;2024-02-04T08:47:28;102495.81;;;12.03
67509;BMP280;54354;44.724;11.284;2024-02-04T08:49:53;102508.84;;;12.22
67509;BMP280;54354;44.724;11.284;2024-02-04T08:52:20;102497.88;;;12.34
67509;BMP280;54354;44.724;11.284;2024-02-04T08:54:47;102504.81;;;12.53
67509;BMP280;54354;44.724;11.284;2024-02-04T08:57:12;102494.25;;;12.71
67509;BMP280;54354;44.724;11.284;2024-02-04T08:59:40;102496.59;;;12.90
67509;BMP280;54354;44.724;11.284;2024-02-04T09:02:05;102501.19;;;13.08
67509;BMP280;54354;44.724;11.284;2024-02-04T09:04:31;102508.44;;;13.25
67509;BMP280;54354;44.724;11.284;2024-02-04T09:06:56;102507.31;;;13.40
67509;BMP280;54354;44.724;11.284;2024-02-04T09:09:22;102497.09;;;13.53
67509;BMP280;54354;44.724;11.284;2024-02-04T09:11:48;102485.28;;;13.68
67509;BMP280;54354;44.724;11.284;2024-02-04T09:14:13;102490.19;;;13.81
67509;BMP280;54354;44.724;11.284;2024-02-04T09:16:39;102487.50;;;13.91
67509;BMP280;54354;44.724;11.284;2024-02-04T09:19:05;102487.88;;;14.04
67509;BMP280;54354;44.724;11.284;2024-02-04T09:21:30;102500.38;;;14.21
67509;BMP280;54354;44.724;11.284;2024-02-04T09:23:56;102506.06;;;14.34
67509;BMP280;54354;44.724;11.284;2024-02-04T09:26:22;102504.50;;;14.44
67509;BMP280;54354;44.724;11.284;2024-02-04T09:28:48;102509.06;;;14.47
67509;BMP280;54354;44.724;11.284;2024-02-04T09:31:14;102505.63;;;14.46
67509;BMP280;54354;44.724;11.284;2024-02-04T09:33:39;102504.44;;;14.51
67509;BMP280;54354;44.724;11.284;2024-02-04T09:36:06;102491.13;;;14.54
67509;BMP280;54354;44.724;11.284;2024-02-04T09:38:31;102509.69;;;14.69
67509;BMP280;54354;44.724;11.284;2024-02-04T09:40:57;102510.41;;;14.80
67509;BMP280;54354;44.724;11.284;2024-02-04T09:43:24;102510.00;;;14.89
67509;BMP280;54354;44.724;11.284;2024-02-04T09:45:50;102513.72;;;14.98
67509;BMP280;54354;44.724;11.284;2024-02-04T09:48:18;102508.34;;;15.02
67509;BMP280;54354;44.724;11.284;2024-02-04T09:50:45;102493.41;;;15.15
67509;BMP280;54354;44.724;11.284;2024-02-04T09:53:13;102490.69;;;15.22
67509;BMP280;54354;44.724;11.284;2024-02-04T09:55:40;102493.22;;;15.40
67509;BMP280;54354;44.724;11.284;2024-02-04T09:58:06;102493.94;;;15.44
67509;BMP280;54354;44.724;11.284;2024-02-04T10:00:33;102493.19;;;15.47
67509;BMP280;54354;44.724;11.284;2024-02-04T10:02:59;102488.56;;;15.48
67509;BMP280;54354;44.724;11.284;2024-02-04T10:05:26;102489.25;;;15.55
67509;BMP280;54354;44.724;11.284;2024-02-04T10:07:52;102486.53;;;15.62
67509;BMP280;54354;44.724;11.284;2024-02-04T10:10:18;102488.78;;;15.68
67509;BMP280;54354;44.724;11.284;2024-02-04T10:12:44;102480.69;;;15.75
67509;BMP280;54354;44.724;11.284;2024-02-04T10:15:09;102481.34;;;15.82
67509;BMP280;54354;44.724;11.284;2024-02-04T10:17:35;102491.25;;;15.85
67509;BMP280;54354;44.724;11.284;2024-02-04T10:20:01;102490.47;;;15.88
67509;BMP280;54354;44.724;11.284;2024-02-04T10:22:28;102485.47;;;15.90
67509;BMP280;54354;44.724;11.284;2024-02-04T10:25:04;102484.63;;;15.97
67509;BMP280;54354;44.724;11.284;2024-02-04T10:27:31;102478.84;;;16.02
67509;BMP280;54354;44.724;11.284;2024-02-04T10:29:56;102489.88;;;16.08
67509;BMP280;54354;44.724;11.284;2024-02-04T10:32:22;102481.41;;;16.13
67509;BMP280;54354;44.724;11.284;2024-02-04T10:34:48;102486.72;;;16.16
67509;BMP280;54354;44.724;11.284;2024-02-04T10:37:13;102485.88;;;16.23
67509;BMP280;54354;44.724;11.284;2024-02-04T10:39:39;102489.53;;;16.33
67509;BMP280;54354;44.724;11.284;2024-02-04T10:42:06;102482.25;;;16.37
67509;BMP280;54354;44.724;11.284;2024-02-04T10:44:35;102474.53;;;16.42
67509;BMP280;54354;44.724;11.284;2024-02-04T10:47:06;102472.44;;;16.54
67509;BMP280;54354;44.724;11.284;2024-02-04T10:49:37;102468.09;;;16.67
67509;BMP280;54354;44.724;11.284;2024-02-04T10:52:06;102461.81;;;16.77
67509;BMP280;54354;44.724;11.284;2024-02-04T10:54:33;102454.31;;;16.92
67509;BMP280;54354;44.724;11.284;2024-02-04T10:57:05;102445.53;;;16.91
67509;BMP280;54354;44.724;11.284;2024-02-04T10:59:32;102441.16;;;17.01
67509;BMP280;54354;44.724;11.284;2024-02-04T11:01:58;102436.88;;;17.03
67509;BMP280;54354;44.724;11.284;2024-02-04T11:04:25;102431.84;;;17.09
67509;BMP280;54354;44.724;11.284;2024-02-04T11:06:52;102424.16;;;17.11
67509;BMP280;54354;44.724;11.284;2024-02-04T11:09:19;102425.22;;;17.17
67509;BMP280;54354;44.724;11.284;2024-02-04T11:11:46;102426.69;;;17.18
67509;BMP280;54354;44.724;11.284;2024-02-04T11:14:13;102404.94;;;17.16
67509;BMP280;54354;44.724;11.284;2024-02-04T11:22:35;102406.47;;;17.77
67509;BMP280;54354;44.724;11.284;2024-02-04T11:27:46;102395.84;;;17.34
67509;BMP280;54354;44.724;11.284;2024-02-04T11:30:13;102390.19;;;17.28
67509;BMP280;54354;44.724;11.284;2024-02-04T11:32:41;102386.63;;;17.35
67509;BMP280;54354;44.724;11.284;2024-02-04T11:35:07;102379.97;;;17.43
67509;BMP280;54354;44.724;11.284;2024-02-04T11:37:34;102371.38;;;17.51
67509;BMP280;54354;44.724;11.284;2024-02-04T11:39:59;102378.94;;;17.56
67509;BMP280;54354;44.724;11.284;2024-02-04T11:42:25;102378.09;;;17.59
67509;BMP280;54354;44.724;11.284;2024-02-04T11:45:11;102365.44;;;17.60
67509;BMP280;54354;44.724;11.284;2024-02-04T11:47:40;102372.53;;;17.70
67509;BMP280;54354;44.724;11.284;2024-02-04T11:50:06;102371.13;;;17.82
67509;BMP280;54354;44.724;11.284;2024-02-04T11:52:32;102362.91;;;17.89
67509;BMP280;54354;44.724;11.284;2024-02-04T11:54:58;102349.09;;;17.91
67509;BMP280;54354;44.724;11.284;2024-02-04T11:57:24;102358.00;;;18.04
67509;BMP280;54354;44.724;11.284;2024-02-04T11:59:51;102346.78;;;18.09
67509;BMP280;54354;44.724;11.284;2024-02-04T12:02:18;102363.69;;;18.22
67509;BMP280;54354;44.724;11.284;2024-02-04T12:04:51;102355.31;;;18.20
67509;BMP280;54354;44.724;11.284;2024-02-04T12:07:17;102346.78;;;18.25
67509;BMP280;54354;44.724;11.284;2024-02-04T12:09:43;102344.34;;;18.31
67509;BMP280;54354;44.724;11.284;2024-02-04T12:12:09;102348.66;;;18.41
67509;BMP280;54354;44.724;11.284;2024-02-04T12:14:35;102352.72;;;18.49
67509;BMP280;54354;44.724;11.284;2024-02-04T12:17:09;102353.59;;;18.59
67509;BMP280;54354;44.724;11.284;2024-02-04T12:19:36;102360.09;;;18.74
67509;BMP280;54354;44.724;11.284;2024-02-04T12:22:01;102354.88;;;18.83
67509;BMP280;54354;44.724;11.284;2024-02-04T12:24:33;102347.31;;;18.94
67509;BMP280;54354;44.724;11.284;2024-02-04T12:26:59;102344.09;;;18.99
67509;BMP280;54354;44.724;11.284;2024-02-04T12:29:25;102342.41;;;19.06
67509;BMP280;54354;44.724;11.284;2024-02-04T12:32:01;102338.50;;;19.07
67509;BMP280;54354;44.724;11.284;2024-02-04T12:34:27;102340.28;;;19.13
67509;BMP280;54354;44.724;11.284;2024-02-04T12:36:59;102337.59;;;19.13
67509;BMP280;54354;44.724;11.284;2024-02-04T12:39:25;102336.41;;;19.27
67509;BMP280;54354;44.724;11.284;2024-02-04T12:41:51;102325.34;;;19.38
67509;BMP280;54354;44.724;11.284;2024-02-04T12:44:18;102321.09;;;19.40
67509;BMP280;54354;44.724;11.284;2024-02-04T12:46:44;102323.78;;;19.40
67509;BMP280;54354;44.724;11.284;2024-02-04T12:49:09;102323.66;;;19.44
67509;BMP280;54354;44.724;11.284;2024-02-04T12:51:39;102324.16;;;19.51
67509;BMP280;54354;44.724;11.284;2024-02-04T12:54:11;102314.00;;;19.46
67509;BMP280;54354;44.724;11.284;2024-02-04T12:59:08;102310.31;;;19.66
67509;BMP280;54354;44.724;11.284;2024-02-04T13:01:36;102309.78;;;19.58
67509;BMP280;54354;44.724;11.284;2024-02-04T13:04:02;102306.56;;;19.50
67509;BMP280;54354;44.724;11.284;2024-02-04T13:06:28;102297.66;;;19.41
67509;BMP280;54354;44.724;11.284;2024-02-04T13:08:55;102294.22;;;19.40
67509;BMP280;54354;44.724;11.284;2024-02-04T13:11:25;102298.16;;;19.48
67509;BMP280;54354;44.724;11.284;2024-02-04T13:13:51;102298.59;;;19.47
67509;BMP280;54354;44.724;11.284;2024-02-04T13:16:17;102315.38;;;19.51
67509;BMP280;54354;44.724;11.284;2024-02-04T13:18:51;102301.09;;;19.41
67509;BMP280;54354;44.724;11.284;2024-02-04T13:21:17;102302.03;;;19.47
67509;BMP280;54354;44.724;11.284;2024-02-04T13:23:45;102305.81;;;19.50
67509;BMP280;54354;44.724;11.284;2024-02-04T13:26:11;102305.47;;;19.48
67509;BMP280;54354;44.724;11.284;2024-02-04T13:28:38;102293.34;;;19.43
67509;BMP280;54354;44.724;11.284;2024-02-04T13:31:04;102288.41;;;19.42
67509;BMP280;54354;44.724;11.284;2024-02-04T13:33:30;102289.34;;;19.48
67509;BMP280;54354;44.724;11.284;2024-02-04T13:35:55;102288.81;;;19.53
67509;BMP280;54354;44.724;11.284;2024-02-04T13:38:22;102290.00;;;19.52
67509;BMP280;54354;44.724;11.284;2024-02-04T13:40:47;102294.41;;;19.59
67509;BMP280;54354;44.724;11.284;2024-02-04T13:43:13;102282.56;;;19.56
67509;BMP280;54354;44.724;11.284;2024-02-04T13:45:39;102280.34;;;19.54
67509;BMP280;54354;44.724;11.284;2024-02-04T13:48:05;102289.81;;;19.59
67509;BMP280;54354;44.724;11.284;2024-02-04T13:50:31;102292.03;;;19.61
67509;BMP280;54354;44.724;11.284;2024-02-04T13:52:57;102295.16;;;19.59
67509;BMP280;54354;44.724;11.284;2024-02-04T13:55:24;102290.97;;;19.58
67509;BMP280;54354;44.724;11.284;2024-02-04T13:57:50;102290.56;;;19.60